sensor_id;sensor_type;location;lat;lon;timestamp;temperature;humidity
21568;DHT22;10944;42.590;12.630;2022-12-19T03:12:35;5.00;99.90
21568;DHT22;10944;42.590;12.630;2022-12-19T03:15:18;4.90;99.90
21568;DHT22;10944;42.590;12.630;2022-12-19T03:17:44;4.90;99.90
21568;DHT22;10944;42.590;12.630;2022-12-19T03:23:11;4.90;99.90
21568;DHT22;10944;42.590;12.630;2022-12-19T03:25:37;4.90;99.90
21568;DHT22;10944;42.590;12.630;2022-12-19T03:28:11;4.90;99.90
21568;DHT22;10944;42.590;12.630;2022-12-19T03:30:40;4.80;99.90
21568;DHT22;10944;42.590;12.630;2022-12-19T03:33:09;4.80;99.90
21568;DHT22;10944;42.590;12.630;2022-12-19T03:35:37;4.80;99.90
21568;DHT22;10944;42.590;12.630;2022-12-19T03:38:05;4.90;99.90
21568;DHT22;10944;42.590;12.630;2022-12-19T03:40:32;4.80;99.90
21568;DHT22;10944;42.590;12.630;2022-12-19T03:43:02;4.80;99.90
21568;DHT22;10944;42.590;12.630;2022-12-19T03:46:01;4.80;99.90
21568;DHT22;10944;42.590;12.630;2022-12-19T03:48:42;4.80;99.90
21568;DHT22;10944;42.590;12.630;2022-12-19T03:53:52;4.90;99.90
21568;DHT22;10944;42.590;12.630;2022-12-19T03:59:11;4.80;99.90
21568;DHT22;10944;42.590;12.630;2022-12-19T04:01:40;4.90;99.90
21568;DHT22;10944;42.590;12.630;2022-12-19T04:04:07;5.10;99.90
21568;DHT22;10944;42.590;12.630;2022-12-19T04:06:34;5.20;99.90
21568;DHT22;10944;42.590;12.630;2022-12-19T04:09:00;5.30;99.90
21568;DHT22;10944;42.590;12.630;2022-12-19T04:11:33;5.40;99.90
21568;DHT22;10944;42.590;12.630;2022-12-19T04:14:07;5.40;99.90
21568;DHT22;10944;42.590;12.630;2022-12-19T04:19:39;5.30;99.90
21568;DHT22;10944;42.590;12.630;2022-12-19T04:22:15;5.30;99.90
21568;DHT22;10944;42.590;12.630;2022-12-19T04:24:43;5.20;99.90
21568;DHT22;10944;42.590;12.630;2022-12-19T04:27:11;5.10;99.90
21568;DHT22;10944;42.590;12.630;2022-12-19T04:29:38;5.20;99.90
21568;DHT22;10944;42.590;12.630;2022-12-19T04:32:05;5.20;99.90
21568;DHT22;10944;42.590;12.630;2022-12-19T04:34:32;5.10;99.90
21568;DHT22;10944;42.590;12.630;2022-12-19T04:36:58;5.10;99.90
21568;DHT22;10944;42.590;12.630;2022-12-19T04:39:24;5.10;99.90
21568;DHT22;10944;42.590;12.630;2022-12-19T04:41:50;5.00;99.90
21568;DHT22;10944;42.590;12.630;2022-12-19T04:44:15;4.90;99.90
21568;DHT22;10944;42.590;12.630;2022-12-19T04:46:41;4.80;99.90
21568;DHT22;10944;42.590;12.630;2022-12-19T04:49:07;4.90;99.90
21568;DHT22;10944;42.590;12.630;2022-12-19T04:51:33;4.90;99.90
21568;DHT22;10944;42.590;12.630;2022-12-19T04:53:58;4.90;99.90
21568;DHT22;10944;42.590;12.630;2022-12-19T04:56:24;4.90;99.90
21568;DHT22;10944;42.590;12.630;2022-12-19T04:58:58;4.90;99.90
21568;DHT22;10944;42.590;12.630;2022-12-19T05:01:24;5.00;99.90
21568;DHT22;10944;42.590;12.630;2022-12-19T05:03:50;4.90;99.90
21568;DHT22;10944;42.590;12.630;2022-12-19T05:06:17;4.90;99.90
21568;DHT22;10944;42.590;12.630;2022-12-19T05:08:43;4.80;99.90
21568;DHT22;10944;42.590;12.630;2022-12-19T05:11:12;4.90;99.90
21568;DHT22;10944;42.590;12.630;2022-12-19T05:13:38;4.80;99.90
21568;DHT22;10944;42.590;12.630;2022-12-19T05:16:06;4.80;99.90
21568;DHT22;10944;42.590;12.630;2022-12-19T05:18:32;4.70;99.90
21568;DHT22;10944;42.590;12.630;2022-12-19T05:20:58;4.70;99.90
21568;DHT22;10944;42.590;12.630;2022-12-19T05:23:24;4.60;99.90
21568;DHT22;10944;42.590;12.630;2022-12-19T05:25:50;4.60;99.90
21568;DHT22;10944;42.590;12.630;2022-12-19T05:28:16;4.40;99.90
21568;DHT22;10944;42.590;12.630;2022-12-19T05:30:42;4.30;99.90
21568;DHT22;10944;42.590;12.630;2022-12-19T05:33:08;4.30;99.90
21568;DHT22;10944;42.590;12.630;2022-12-19T05:35:34;4.40;99.90
21568;DHT22;10944;42.590;12.630;2022-12-19T05:38:01;4.40;99.90
21568;DHT22;10944;42.590;12.630;2022-12-19T05:40:27;4.40;99.90
21568;DHT22;10944;42.590;12.630;2022-12-19T05:42:53;4.40;99.90
21568;DHT22;10944;42.590;12.630;2022-12-19T05:45:18;4.50;99.90
21568;DHT22;10944;42.590;12.630;2022-12-19T05:47:45;4.50;99.90
21568;DHT22;10944;42.590;12.630;2022-12-19T05:50:12;4.70;99.90
21568;DHT22;10944;42.590;12.630;2022-12-19T05:52:38;4.80;99.90
21568;DHT22;10944;42.590;12.630;2022-12-19T05:55:05;4.80;99.90
21568;DHT22;10944;42.590;12.630;2022-12-19T05:57:31;4.90;99.90
21568;DHT22;10944;42.590;12.630;2022-12-19T05:59:56;5.00;99.90
21568;DHT22;10944;42.590;12.630;2022-12-19T06:02:22;5.10;99.90
21568;DHT22;10944;42.590;12.630;2022-12-19T06:04:48;5.20;99.90
21568;DHT22;10944;42.590;12.630;2022-12-19T06:07:14;5.20;99.90
21568;DHT22;10944;42.590;12.630;2022-12-19T06:09:40;5.20;99.90
21568;DHT22;10944;42.590;12.630;2022-12-19T06:12:06;5.30;99.90
21568;DHT22;10944;42.590;12.630;2022-12-19T06:14:31;5.30;99.90
21568;DHT22;10944;42.590;12.630;2022-12-19T06:16:57;5.40;99.90
21568;DHT22;10944;42.590;12.630;2022-12-19T06:19:23;5.50;99.90
21568;DHT22;10944;42.590;12.630;2022-12-19T06:21:49;5.50;99.90
21568;DHT22;10944;42.590;12.630;2022-12-19T06:24:15;5.50;99.90
21568;DHT22;10944;42.590;12.630;2022-12-19T06:26:41;5.50;99.90
21568;DHT22;10944;42.590;12.630;2022-12-19T06:29:07;5.70;99.90
21568;DHT22;10944;42.590;12.630;2022-12-19T06:31:32;5.70;99.90
21568;DHT22;10944;42.590;12.630;2022-12-19T06:33:58;5.70;99.90
21568;DHT22;10944;42.590;12.630;2022-12-19T06:36:26;5.70;99.90
21568;DHT22;10944;42.590;12.630;2022-12-19T06:38:53;5.80;99.90
21568;DHT22;10944;42.590;12.630;2022-12-19T06:41:19;5.80;99.90
21568;DHT22;10944;42.590;12.630;2022-12-19T06:44:05;5.80;99.90
21568;DHT22;10944;42.590;12.630;2022-12-19T06:46:32;5.80;99.90
21568;DHT22;10944;42.590;12.630;2022-12-19T06:48:58;5.90;99.90
21568;DHT22;10944;42.590;12.630;2022-12-19T06:51:24;6.00;99.90
21568;DHT22;10944;42.590;12.630;2022-12-19T06:53:50;6.00;99.90
21568;DHT22;10944;42.590;12.630;2022-12-19T06:56:17;6.00;99.90
21568;DHT22;10944;42.590;12.630;2022-12-19T06:58:43;6.10;99.90
21568;DHT22;10944;42.590;12.630;2022-12-19T07:04:06;6.10;99.90
21568;DHT22;10944;42.590;12.630;2022-12-19T07:06:34;6.20;99.90
21568;DHT22;10944;42.590;12.630;2022-12-19T07:09:00;6.20;99.90
21568;DHT22;10944;42.590;12.630;2022-12-19T07:11:25;6.20;99.90
21568;DHT22;10944;42.590;12.630;2022-12-19T07:13:51;6.20;99.90
21568;DHT22;10944;42.590;12.630;2022-12-19T07:16:17;6.20;99.90
21568;DHT22;10944;42.590;12.630;2022-12-19T07:18:42;6.10;99.90
21568;DHT22;10944;42.590;12.630;2022-12-19T07:21:09;6.10;99.90
21568;DHT22;10944;42.590;12.630;2022-12-19T07:23:35;6.10;99.90
21568;DHT22;10944;42.590;12.630;2022-12-19T07:26:02;6.20;99.90
21568;DHT22;10944;42.590;12.630;2022-12-19T07:28:27;6.10;99.90
21568;DHT22;10944;42.590;12.630;2022-12-19T07:30:53;6.20;99.90
21568;DHT22;10944;42.590;12.630;2022-12-19T07:33:19;6.20;99.90
21568;DHT22;10944;42.590;12.630;2022-12-19T07:35:45;6.30;99.90
21568;DHT22;10944;42.590;12.630;2022-12-19T07:38:10;6.30;99.90
21568;DHT22;10944;42.590;12.630;2022-12-19T07:40:36;6.40;99.90
21568;DHT22;10944;42.590;12.630;2022-12-19T07:43:03;6.50;99.90
21568;DHT22;10944;42.590;12.630;2022-12-19T07:45:30;6.50;99.90
21568;DHT22;10944;42.590;12.630;2022-12-19T07:47:59;6.50;99.90
21568;DHT22;10944;42.590;12.630;2022-12-19T07:50:25;6.70;99.90
21568;DHT22;10944;42.590;12.630;2022-12-19T07:52:51;6.80;99.90
21568;DHT22;10944;42.590;12.630;2022-12-19T07:55:16;6.80;99.90
21568;DHT22;10944;42.590;12.630;2022-12-19T07:57:42;6.90;99.90
21568;DHT22;10944;42.590;12.630;2022-12-19T08:00:08;7.00;99.90
21568;DHT22;10944;42.590;12.630;2022-12-19T08:02:34;7.00;99.90
21568;DHT22;10944;42.590;12.630;2022-12-19T08:05:00;7.00;99.90
21568;DHT22;10944;42.590;12.630;2022-12-19T08:07:26;7.00;99.90
21568;DHT22;10944;42.590;12.630;2022-12-19T08:09:51;7.00;99.90
21568;DHT22;10944;42.590;12.630;2022-12-19T08:12:17;7.00;99.90
21568;DHT22;10944;42.590;12.630;2022-12-19T08:14:43;7.10;99.90
21568;DHT22;10944;42.590;12.630;2022-12-19T08:17:09;7.10;99.90
21568;DHT22;10944;42.590;12.630;2022-12-19T08:19:34;7.20;99.90
21568;DHT22;10944;42.590;12.630;2022-12-19T08:22:01;7.10;99.90
21568;DHT22;10944;42.590;12.630;2022-12-19T08:24:26;7.10;99.90
21568;DHT22;10944;42.590;12.630;2022-12-19T08:26:52;7.30;99.90
21568;DHT22;10944;42.590;12.630;2022-12-19T08:29:18;7.30;99.90
21568;DHT22;10944;42.590;12.630;2022-12-19T08:31:44;7.20;99.90
21568;DHT22;10944;42.590;12.630;2022-12-19T08:34:09;7.40;99.90
21568;DHT22;10944;42.590;12.630;2022-12-19T08:36:35;7.60;99.90
21568;DHT22;10944;42.590;12.630;2022-12-19T08:39:02;7.70;99.90
21568;DHT22;10944;42.590;12.630;2022-12-19T08:41:28;7.60;99.90
21568;DHT22;10944;42.590;12.630;2022-12-19T08:43:54;7.80;99.90
21568;DHT22;10944;42.590;12.630;2022-12-19T08:46:20;7.90;99.90
21568;DHT22;10944;42.590;12.630;2022-12-19T08:48:47;8.00;99.90
21568;DHT22;10944;42.590;12.630;2022-12-19T08:51:14;8.00;99.90
21568;DHT22;10944;42.590;12.630;2022-12-19T08:53:42;7.90;99.90
21568;DHT22;10944;42.590;12.630;2022-12-19T08:56:19;7.80;99.90
21568;DHT22;10944;42.590;12.630;2022-12-19T08:58:46;7.90;99.90
21568;DHT22;10944;42.590;12.630;2022-12-19T09:01:16;7.90;99.90
21568;DHT22;10944;42.590;12.630;2022-12-19T09:03:46;7.80;99.90
21568;DHT22;10944;42.590;12.630;2022-12-19T09:06:12;7.90;99.90
21568;DHT22;10944;42.590;12.630;2022-12-19T09:08:39;7.90;99.90
21568;DHT22;10944;42.590;12.630;2022-12-19T09:11:11;7.80;99.90
21568;DHT22;10944;42.590;12.630;2022-12-19T09:13:39;7.80;99.90
21568;DHT22;10944;42.590;12.630;2022-12-19T09:16:21;7.80;99.90
21568;DHT22;10944;42.590;12.630;2022-12-19T09:18:49;7.90;99.90
21568;DHT22;10944;42.590;12.630;2022-12-19T09:21:17;7.80;99.90
21568;DHT22;10944;42.590;12.630;2022-12-19T09:23:50;7.90;99.90
21568;DHT22;10944;42.590;12.630;2022-12-19T09:26:17;7.90;99.90
21568;DHT22;10944;42.590;12.630;2022-12-19T09:28:45;7.90;99.90
21568;DHT22;10944;42.590;12.630;2022-12-19T09:31:13;7.80;99.90
21568;DHT22;10944;42.590;12.630;2022-12-19T09:33:39;7.80;99.90
21568;DHT22;10944;42.590;12.630;2022-12-19T09:36:05;7.60;99.90
21568;DHT22;10944;42.590;12.630;2022-12-19T09:38:32;7.70;99.90
21568;DHT22;10944;42.590;12.630;2022-12-19T09:46:56;8.00;99.90
21568;DHT22;10944;42.590;12.630;2022-12-19T09:49:36;8.20;99.90
21568;DHT22;10944;42.590;12.630;2022-12-19T09:57:53;8.30;99.90
21568;DHT22;10944;42.590;12.630;2022-12-19T10:00:21;8.40;99.90
21568;DHT22;10944;42.590;12.630;2022-12-19T10:03:17;8.40;99.90
21568;DHT22;10944;42.590;12.630;2022-12-19T10:19:14;8.60;99.90
21568;DHT22;10944;42.590;12.630;2022-12-19T10:27:18;8.50;99.90
21568;DHT22;10944;42.590;12.630;2022-12-19T10:30:00;8.50;99.90
21568;DHT22;10944;42.590;12.630;2022-12-19T10:38:54;8.70;99.90
21568;DHT22;10944;42.590;12.630;2022-12-19T10:41:24;8.90;99.90
21568;DHT22;10944;42.590;12.630;2022-12-19T10:46:43;9.10;99.90
21568;DHT22;10944;42.590;12.630;2022-12-19T10:49:20;9.10;99.90
21568;DHT22;10944;42.590;12.630;2022-12-19T10:51:59;8.90;99.90
21568;DHT22;10944;42.590;12.630;2022-12-19T10:57:26;9.00;99.90
21568;DHT22;10944;42.590;12.630;2022-12-19T11:00:03;9.20;99.90
21568;DHT22;10944;42.590;12.630;2022-12-19T11:05:25;9.40;99.90
21568;DHT22;10944;42.590;12.630;2022-12-19T11:15:52;9.50;99.90
21568;DHT22;10944;42.590;12.630;2022-12-19T11:18:18;9.60;99.90
21568;DHT22;10944;42.590;12.630;2022-12-19T11:20:59;9.70;99.90
21568;DHT22;10944;42.590;12.630;2022-12-19T11:23:27;9.50;99.90
21568;DHT22;10944;42.590;12.630;2022-12-19T11:26:02;9.50;99.90
21568;DHT22;10944;42.590;12.630;2022-12-19T11:28:36;9.40;99.90
21568;DHT22;10944;42.590;12.630;2022-12-19T11:31:09;9.40;99.90
21568;DHT22;10944;42.590;12.630;2022-12-19T11:33:36;9.30;99.90
21568;DHT22;10944;42.590;12.630;2022-12-19T11:36:03;9.30;99.90
21568;DHT22;10944;42.590;12.630;2022-12-19T11:38:46;9.50;99.90
21568;DHT22;10944;42.590;12.630;2022-12-19T11:41:48;9.50;99.90
21568;DHT22;10944;42.590;12.630;2022-12-19T11:44:25;9.50;99.90
21568;DHT22;10944;42.590;12.630;2022-12-19T11:50:33;9.60;99.90
21568;DHT22;10944;42.590;12.630;2022-12-19T11:53:22;9.60;99.90
21568;DHT22;10944;42.590;12.630;2022-12-19T11:55:59;9.60;99.90
21568;DHT22;10944;42.590;12.630;2022-12-19T11:58:27;9.70;99.90
21568;DHT22;10944;42.590;12.630;2022-12-19T12:06:52;9.80;99.90
21568;DHT22;10944;42.590;12.630;2022-12-19T12:20:28;10.10;99.90
21568;DHT22;10944;42.590;12.630;2022-12-19T12:24:19;10.00;99.90
21568;DHT22;10944;42.590;12.630;2022-12-19T12:32:00;9.80;99.90
21568;DHT22;10944;42.590;12.630;2022-12-19T12:37:24;9.90;99.90
21568;DHT22;10944;42.590;12.630;2022-12-19T12:47:51;10.10;99.90
21568;DHT22;10944;42.590;12.630;2022-12-19T12:50:20;10.20;99.90
21568;DHT22;10944;42.590;12.630;2022-12-19T12:52:53;10.10;99.90
21568;DHT22;10944;42.590;12.630;2022-12-19T12:57:53;10.20;99.90
21568;DHT22;10944;42.590;12.630;2022-12-19T13:05:23;10.20;99.90
21568;DHT22;10944;42.590;12.630;2022-12-19T13:07:53;10.10;99.90
21568;DHT22;10944;42.590;12.630;2022-12-19T13:12:56;10.10;99.90
21568;DHT22;10944;42.590;12.630;2022-12-19T13:25:46;10.30;99.90
21568;DHT22;10944;42.590;12.630;2022-12-19T13:31:19;10.20;99.90
21568;DHT22;10944;42.590;12.630;2022-12-19T13:39:40;10.20;99.90
21568;DHT22;10944;42.590;12.630;2022-12-19T13:42:13;10.20;99.90
21568;DHT22;10944;42.590;12.630;2022-12-19T13:45:02;10.00;99.90
21568;DHT22;10944;42.590;12.630;2022-12-19T13:47:34;10.00;99.90
21568;DHT22;10944;42.590;12.630;2022-12-19T13:50:15;10.10;99.90
21568;DHT22;10944;42.590;12.630;2022-12-19T13:52:50;10.10;99.90
21568;DHT22;10944;42.590;12.630;2022-12-19T13:55:16;10.00;99.90
21568;DHT22;10944;42.590;12.630;2022-12-19T13:57:42;10.00;99.90
21568;DHT22;10944;42.590;12.630;2022-12-19T14:00:17;10.00;99.90
21568;DHT22;10944;42.590;12.630;2022-12-19T14:02:57;10.00;99.90
21568;DHT22;10944;42.590;12.630;2022-12-19T14:07:56;9.90;99.90
21568;DHT22;10944;42.590;12.630;2022-12-19T14:10:27;10.00;99.90
21568;DHT22;10944;42.590;12.630;2022-12-19T14:12:54;9.90;99.90
21568;DHT22;10944;42.590;12.630;2022-12-19T14:15:44;9.90;99.90
21568;DHT22;10944;42.590;12.630;2022-12-19T14:18:24;10.00;99.90
21568;DHT22;10944;42.590;12.630;2022-12-19T14:21:16;10.00;99.90
21568;DHT22;10944;42.590;12.630;2022-12-19T14:23:42;10.00;99.90
21568;DHT22;10944;42.590;12.630;2022-12-19T14:26:29;10.00;99.90
21568;DHT22;10944;42.590;12.630;2022-12-19T14:29:00;10.00;99.90
21568;DHT22;10944;42.590;12.630;2022-12-19T14:31:27;9.90;99.90
21568;DHT22;10944;42.590;12.630;2022-12-19T14:33:55;9.90;99.90
21568;DHT22;10944;42.590;12.630;2022-12-19T14:36:26;9.90;99.90
21568;DHT22;10944;42.590;12.630;2022-12-19T14:38:54;9.90;99.90
21568;DHT22;10944;42.590;12.630;2022-12-19T14:44:16;9.80;99.90
21568;DHT22;10944;42.590;12.630;2022-12-19T14:46:58;9.70;99.90
21568;DHT22;10944;42.590;12.630;2022-12-19T14:49:32;9.70;99.90
21568;DHT22;10944;42.590;12.630;2022-12-19T14:52:31;9.60;99.90
21568;DHT22;10944;42.590;12.630;2022-12-19T14:57:54;9.50;99.90
21568;DHT22;10944;42.590;12.630;2022-12-19T15:00:30;9.50;99.90
21568;DHT22;10944;42.590;12.630;2022-12-19T15:02:59;9.40;99.90
21568;DHT22;10944;42.590;12.630;2022-12-19T15:05:27;9.40;99.90
21568;DHT22;10944;42.590;12.630;2022-12-19T15:07:55;9.40;99.90
21568;DHT22;10944;42.590;12.630;2022-12-19T15:10:29;9.30;99.90
21568;DHT22;10944;42.590;12.630;2022-12-19T15:21:00;9.00;99.90
21568;DHT22;10944;42.590;12.630;2022-12-19T15:23:27;8.90;99.90
21568;DHT22;10944;42.590;12.630;2022-12-19T15:26:00;8.90;99.90
21568;DHT22;10944;42.590;12.630;2022-12-19T15:31:02;8.70;99.90
21568;DHT22;10944;42.590;12.630;2022-12-19T15:33:29;8.60;99.90
21568;DHT22;10944;42.590;12.630;2022-12-19T15:35:55;8.50;99.90
21568;DHT22;10944;42.590;12.630;2022-12-19T15:38:21;8.40;99.90
21568;DHT22;10944;42.590;12.630;2022-12-19T15:40:47;8.30;99.90
21568;DHT22;10944;42.590;12.630;2022-12-19T15:43:17;8.30;99.90
21568;DHT22;10944;42.590;12.630;2022-12-19T15:45:45;8.20;99.90
21568;DHT22;10944;42.590;12.630;2022-12-19T15:48:15;8.00;99.90
21568;DHT22;10944;42.590;12.630;2022-12-19T15:50:42;8.00;99.90
21568;DHT22;10944;42.590;12.630;2022-12-19T15:53:26;7.90;99.90
21568;DHT22;10944;42.590;12.630;2022-12-19T15:55:53;7.90;99.90
21568;DHT22;10944;42.590;12.630;2022-12-19T15:58:20;7.90;99.90
21568;DHT22;10944;42.590;12.630;2022-12-19T16:00:54;7.80;99.90
21568;DHT22;10944;42.590;12.630;2022-12-19T16:03:22;7.70;99.90
21568;DHT22;10944;42.590;12.630;2022-12-19T16:05:48;7.60;99.90
21568;DHT22;10944;42.590;12.630;2022-12-19T16:08:18;7.60;99.90
21568;DHT22;10944;42.590;12.630;2022-12-19T16:10:47;7.60;99.90
21568;DHT22;10944;42.590;12.630;2022-12-19T16:13:33;7.50;99.90
21568;DHT22;10944;42.590;12.630;2022-12-19T16:15:59;7.40;99.90
21568;DHT22;10944;42.590;12.630;2022-12-19T16:18:25;7.40;99.90
21568;DHT22;10944;42.590;12.630;2022-12-19T16:20:52;7.30;99.90
21568;DHT22;10944;42.590;12.630;2022-12-19T16:23:18;7.30;99.90
21568;DHT22;10944;42.590;12.630;2022-12-19T16:25:49;7.30;99.90
21568;DHT22;10944;42.590;12.630;2022-12-19T16:28:38;7.30;99.90
21568;DHT22;10944;42.590;12.630;2022-12-19T16:31:13;7.30;99.90
21568;DHT22;10944;42.590;12.630;2022-12-19T16:33:39;7.30;99.90
21568;DHT22;10944;42.590;12.630;2022-12-19T16:36:05;7.30;99.90
21568;DHT22;10944;42.590;12.630;2022-12-19T16:38:31;7.10;99.90
21568;DHT22;10944;42.590;12.630;2022-12-19T16:40:57;7.10;99.90
21568;DHT22;10944;42.590;12.630;2022-12-19T16:45:49;7.20;99.90
21568;DHT22;10944;42.590;12.630;2022-12-19T16:48:20;7.10;99.90
21568;DHT22;10944;42.590;12.630;2022-12-19T16:50:46;7.20;99.90
21568;DHT22;10944;42.590;12.630;2022-12-19T16:53:12;7.20;99.90
21568;DHT22;10944;42.590;12.630;2022-12-19T16:55:38;7.10;99.90
21568;DHT22;10944;42.590;12.630;2022-12-19T16:58:04;7.10;99.90
21568;DHT22;10944;42.590;12.630;2022-12-19T17:00:30;7.10;99.90
21568;DHT22;10944;42.590;12.630;2022-12-19T17:03:07;7.10;99.90
21568;DHT22;10944;42.590;12.630;2022-12-19T17:05:33;7.10;99.90
21568;DHT22;10944;42.590;12.630;2022-12-19T17:07:59;7.20;99.90
21568;DHT22;10944;42.590;12.630;2022-12-19T17:10:32;7.20;99.90
21568;DHT22;10944;42.590;12.630;2022-12-19T17:12:58;7.10;99.90
21568;DHT22;10944;42.590;12.630;2022-12-19T17:15:28;7.00;99.90
21568;DHT22;10944;42.590;12.630;2022-12-19T17:17:57;6.90;99.90
21568;DHT22;10944;42.590;12.630;2022-12-19T17:20:26;6.90;99.90
21568;DHT22;10944;42.590;12.630;2022-12-19T17:22:53;6.90;99.90
21568;DHT22;10944;42.590;12.630;2022-12-19T17:25:24;6.90;99.90
21568;DHT22;10944;42.590;12.630;2022-12-19T17:27:52;6.80;99.90
21568;DHT22;10944;42.590;12.630;2022-12-19T17:30:18;6.80;99.90
21568;DHT22;10944;42.590;12.630;2022-12-19T17:32:49;6.70;99.90
21568;DHT22;10944;42.590;12.630;2022-12-19T17:35:21;6.80;99.90
21568;DHT22;10944;42.590;12.630;2022-12-19T17:37:52;6.70;99.90
21568;DHT22;10944;42.590;12.630;2022-12-19T17:40:22;6.70;99.90
21568;DHT22;10944;42.590;12.630;2022-12-19T17:42:49;6.60;99.90
21568;DHT22;10944;42.590;12.630;2022-12-19T17:45:15;6.60;99.90
21568;DHT22;10944;42.590;12.630;2022-12-19T17:47:42;6.70;99.90
21568;DHT22;10944;42.590;12.630;2022-12-19T17:52:43;6.60;99.90
21568;DHT22;10944;42.590;12.630;2022-12-19T17:55:35;6.60;99.90
21568;DHT22;10944;42.590;12.630;2022-12-19T17:58:01;6.50;99.90
21568;DHT22;10944;42.590;12.630;2022-12-19T18:00:28;6.50;99.90
21568;DHT22;10944;42.590;12.630;2022-12-19T18:02:57;6.40;99.90
21568;DHT22;10944;42.590;12.630;2022-12-19T18:05:27;6.50;99.90
21568;DHT22;10944;42.590;12.630;2022-12-19T18:07:53;6.50;99.90
21568;DHT22;10944;42.590;12.630;2022-12-19T18:10:22;6.40;99.90
21568;DHT22;10944;42.590;12.630;2022-12-19T18:12:48;6.30;99.90
21568;DHT22;10944;42.590;12.630;2022-12-19T18:15:15;6.30;99.90
21568;DHT22;10944;42.590;12.630;2022-12-19T18:17:41;6.40;99.90
21568;DHT22;10944;42.590;12.630;2022-12-19T18:20:28;6.30;99.90
21568;DHT22;10944;42.590;12.630;2022-12-19T18:22:56;6.30;99.90
21568;DHT22;10944;42.590;12.630;2022-12-19T18:25:27;6.30;99.90
21568;DHT22;10944;42.590;12.630;2022-12-19T18:27:54;6.20;99.90
21568;DHT22;10944;42.590;12.630;2022-12-19T18:30:21;6.30;99.90
21568;DHT22;10944;42.590;12.630;2022-12-19T18:32:55;6.20;99.90
21568;DHT22;10944;42.590;12.630;2022-12-19T18:38:04;6.20;99.90
21568;DHT22;10944;42.590;12.630;2022-12-19T18:40:30;6.10;99.90
21568;DHT22;10944;42.590;12.630;2022-12-19T18:42:56;6.20;99.90
21568;DHT22;10944;42.590;12.630;2022-12-19T18:45:25;6.10;99.90
21568;DHT22;10944;42.590;12.630;2022-12-19T18:47:54;6.00;99.90
21568;DHT22;10944;42.590;12.630;2022-12-19T18:50:23;6.10;99.90
21568;DHT22;10944;42.590;12.630;2022-12-19T18:52:50;6.10;99.90
21568;DHT22;10944;42.590;12.630;2022-12-19T18:55:18;6.00;99.90
21568;DHT22;10944;42.590;12.630;2022-12-19T18:57:45;6.00;99.90
21568;DHT22;10944;42.590;12.630;2022-12-19T19:00:22;6.00;99.90
21568;DHT22;10944;42.590;12.630;2022-12-19T19:03:03;6.00;99.90
21568;DHT22;10944;42.590;12.630;2022-12-19T19:05:31;5.90;99.90
21568;DHT22;10944;42.590;12.630;2022-12-19T19:08:10;6.00;99.90
21568;DHT22;10944;42.590;12.630;2022-12-19T19:10:37;6.10;99.90
21568;DHT22;10944;42.590;12.630;2022-12-19T19:13:03;6.10;99.90
21568;DHT22;10944;42.590;12.630;2022-12-19T19:15:32;6.10;99.90
21568;DHT22;10944;42.590;12.630;2022-12-19T19:18:03;6.10;99.90
21568;DHT22;10944;42.590;12.630;2022-12-19T19:20:33;6.10;99.90
21568;DHT22;10944;42.590;12.630;2022-12-19T19:23:01;6.10;99.90
21568;DHT22;10944;42.590;12.630;2022-12-19T19:25:27;6.10;99.90
21568;DHT22;10944;42.590;12.630;2022-12-19T19:27:53;6.10;99.90
21568;DHT22;10944;42.590;12.630;2022-12-19T19:30:21;6.10;99.90
21568;DHT22;10944;42.590;12.630;2022-12-19T19:32:50;6.10;99.90
21568;DHT22;10944;42.590;12.630;2022-12-19T19:35:18;6.00;99.90
21568;DHT22;10944;42.590;12.630;2022-12-19T19:37:46;6.00;99.90
21568;DHT22;10944;42.590;12.630;2022-12-19T19:40:15;5.90;99.90
21568;DHT22;10944;42.590;12.630;2022-12-19T19:42:40;5.90;99.90
21568;DHT22;10944;42.590;12.630;2022-12-19T19:45:07;5.80;99.90
21568;DHT22;10944;42.590;12.630;2022-12-19T19:47:33;5.70;99.90
21568;DHT22;10944;42.590;12.630;2022-12-19T19:50:03;5.70;99.90
21568;DHT22;10944;42.590;12.630;2022-12-19T19:52:29;5.70;99.90
21568;DHT22;10944;42.590;12.630;2022-12-19T19:54:55;5.70;99.90
21568;DHT22;10944;42.590;12.630;2022-12-19T19:57:20;5.50;99.90
21568;DHT22;10944;42.590;12.630;2022-12-19T19:59:46;5.60;99.90
21568;DHT22;10944;42.590;12.630;2022-12-19T20:02:12;5.50;99.90
21568;DHT22;10944;42.590;12.630;2022-12-19T20:04:38;5.50;99.90
21568;DHT22;10944;42.590;12.630;2022-12-19T20:07:04;5.60;99.90
21568;DHT22;10944;42.590;12.630;2022-12-19T20:09:30;5.50;99.90
21568;DHT22;10944;42.590;12.630;2022-12-19T20:11:57;5.50;99.90
21568;DHT22;10944;42.590;12.630;2022-12-19T20:14:23;5.50;99.90
21568;DHT22;10944;42.590;12.630;2022-12-19T20:16:49;5.40;99.90
21568;DHT22;10944;42.590;12.630;2022-12-19T20:19:15;5.40;99.90
21568;DHT22;10944;42.590;12.630;2022-12-19T20:21:41;5.40;99.90
21568;DHT22;10944;42.590;12.630;2022-12-19T20:24:07;5.40;99.90
21568;DHT22;10944;42.590;12.630;2022-12-19T20:26:33;5.40;99.90
21568;DHT22;10944;42.590;12.630;2022-12-19T20:28:59;5.30;99.90
21568;DHT22;10944;42.590;12.630;2022-12-19T20:31:25;5.30;99.90
21568;DHT22;10944;42.590;12.630;2022-12-19T20:33:54;5.30;99.90
21568;DHT22;10944;42.590;12.630;2022-12-19T20:36:21;5.40;99.90
21568;DHT22;10944;42.590;12.630;2022-12-19T20:38:47;5.30;99.90
21568;DHT22;10944;42.590;12.630;2022-12-19T20:41:14;5.30;99.90
21568;DHT22;10944;42.590;12.630;2022-12-19T20:43:39;5.10;99.90
21568;DHT22;10944;42.590;12.630;2022-12-19T20:46:11;5.10;99.90
21568;DHT22;10944;42.590;12.630;2022-12-19T20:48:37;5.20;99.90
21568;DHT22;10944;42.590;12.630;2022-12-19T20:51:05;5.10;99.90
21568;DHT22;10944;42.590;12.630;2022-12-19T20:53:34;5.20;99.90
21568;DHT22;10944;42.590;12.630;2022-12-19T20:56:04;5.30;99.90
21568;DHT22;10944;42.590;12.630;2022-12-19T20:58:32;5.30;99.90
21568;DHT22;10944;42.590;12.630;2022-12-19T21:01:10;5.30;99.90
21568;DHT22;10944;42.590;12.630;2022-12-19T21:03:36;5.40;99.90
21568;DHT22;10944;42.590;12.630;2022-12-19T21:06:03;5.40;99.90
21568;DHT22;10944;42.590;12.630;2022-12-19T21:08:30;5.40;99.90
21568;DHT22;10944;42.590;12.630;2022-12-19T21:10:56;5.40;99.90
21568;DHT22;10944;42.590;12.630;2022-12-19T21:13:22;5.30;99.90
21568;DHT22;10944;42.590;12.630;2022-12-19T21:16:02;5.30;99.90
21568;DHT22;10944;42.590;12.630;2022-12-19T21:18:28;5.30;99.90
21568;DHT22;10944;42.590;12.630;2022-12-19T21:20:55;5.40;99.90
21568;DHT22;10944;42.590;12.630;2022-12-19T21:23:22;5.40;99.90
21568;DHT22;10944;42.590;12.630;2022-12-19T21:25:48;5.40;99.90
21568;DHT22;10944;42.590;12.630;2022-12-19T21:28:14;5.40;99.90
21568;DHT22;10944;42.590;12.630;2022-12-19T21:30:39;5.30;99.90
21568;DHT22;10944;42.590;12.630;2022-12-19T21:33:08;5.30;99.90
21568;DHT22;10944;42.590;12.630;2022-12-19T21:35:34;5.20;99.90